sensor_id;sensor_type;location;lat;lon;timestamp;P1;durP1;ratioP1;P2;durP2;ratioP2
66739;SDS011;53653;52.188;8.602;2023-09-19T00:00:41;6.60;;;2.60;;
66739;SDS011;53653;52.188;8.602;2023-09-19T00:03:09;11.33;;;3.33;;
66739;SDS011;53653;52.188;8.602;2023-09-19T00:05:35;9.60;;;2.65;;
66739;SDS011;53653;52.188;8.602;2023-09-19T00:08:01;10.52;;;2.72;;
66739;SDS011;53653;52.188;8.602;2023-09-19T00:10:31;11.07;;;3.30;;
66739;SDS011;53653;52.188;8.602;2023-09-19T00:13:00;10.32;;;3.63;;
66739;SDS011;53653;52.188;8.602;2023-09-19T00:15:30;9.23;;;3.40;;
66739;SDS011;53653;52.188;8.602;2023-09-19T00:17:58;10.45;;;3.50;;
66739;SDS011;53653;52.188;8.602;2023-09-19T00:20:24;11.17;;;3.20;;
66739;SDS011;53653;52.188;8.602;2023-09-19T00:22:50;8.02;;;3.25;;
66739;SDS011;53653;52.188;8.602;2023-09-19T00:25:19;10.27;;;3.05;;
66739;SDS011;53653;52.188;8.602;2023-09-19T00:27:45;9.50;;;3.33;;
66739;SDS011;53653;52.188;8.602;2023-09-19T00:30:15;9.75;;;3.50;;
66739;SDS011;53653;52.188;8.602;2023-09-19T00:32:47;9.35;;;3.20;;
66739;SDS011;53653;52.188;8.602;2023-09-19T00:35:13;8.05;;;2.97;;
66739;SDS011;53653;52.188;8.602;2023-09-19T00:37:42;13.18;;;3.70;;
66739;SDS011;53653;52.188;8.602;2023-09-19T00:40:08;10.97;;;3.67;;
66739;SDS011;53653;52.188;8.602;2023-09-19T00:42:38;11.65;;;3.28;;
66739;SDS011;53653;52.188;8.602;2023-09-19T00:45:06;10.20;;;3.20;;
66739;SDS011;53653;52.188;8.602;2023-09-19T00:47:34;10.48;;;3.20;;
66739;SDS011;53653;52.188;8.602;2023-09-19T00:50:00;7.93;;;2.70;;
66739;SDS011;53653;52.188;8.602;2023-09-19T00:52:28;9.27;;;3.00;;
66739;SDS011;53653;52.188;8.602;2023-09-19T00:54:54;7.25;;;2.80;;
66739;SDS011;53653;52.188;8.602;2023-09-19T00:57:19;11.07;;;2.35;;
66739;SDS011;53653;52.188;8.602;2023-09-19T00:59:47;10.20;;;3.33;;
66739;SDS011;53653;52.188;8.602;2023-09-19T01:02:15;13.10;;;3.83;;
66739;SDS011;53653;52.188;8.602;2023-09-19T01:04:41;11.57;;;3.85;;
66739;SDS011;53653;52.188;8.602;2023-09-19T01:07:07;8.80;;;3.35;;
66739;SDS011;53653;52.188;8.602;2023-09-19T01:09:34;13.32;;;4.10;;
66739;SDS011;53653;52.188;8.602;2023-09-19T01:12:01;12.90;;;3.43;;
66739;SDS011;53653;52.188;8.602;2023-09-19T01:17:28;10.32;;;3.15;;
66739;SDS011;53653;52.188;8.602;2023-09-19T01:20:07;10.05;;;3.10;;
66739;SDS011;53653;52.188;8.602;2023-09-19T01:22:43;9.77;;;3.47;;
66739;SDS011;53653;52.188;8.602;2023-09-19T01:28:31;8.40;;;3.17;;
66739;SDS011;53653;52.188;8.602;2023-09-19T01:31:03;13.45;;;4.10;;
66739;SDS011;53653;52.188;8.602;2023-09-19T01:36:22;12.65;;;3.67;;
66739;SDS011;53653;52.188;8.602;2023-09-19T01:38:49;11.97;;;4.57;;
66739;SDS011;53653;52.188;8.602;2023-09-19T01:44:06;13.25;;;4.15;;
66739;SDS011;53653;52.188;8.602;2023-09-19T01:46:39;10.38;;;3.55;;
66739;SDS011;53653;52.188;8.602;2023-09-19T01:49:12;11.38;;;3.10;;
66739;SDS011;53653;52.188;8.602;2023-09-19T01:54:33;13.00;;;3.47;;
66739;SDS011;53653;52.188;8.602;2023-09-19T01:58:06;13.13;;;3.53;;
66739;SDS011;53653;52.188;8.602;2023-09-19T02:00:11;11.80;;;3.15;;
66739;SDS011;53653;52.188;8.602;2023-09-19T02:02:40;11.63;;;3.40;;
66739;SDS011;53653;52.188;8.602;2023-09-19T02:05:09;10.87;;;3.40;;
66739;SDS011;53653;52.188;8.602;2023-09-19T02:07:35;10.40;;;3.75;;
66739;SDS011;53653;52.188;8.602;2023-09-19T02:10:03;11.85;;;3.10;;
66739;SDS011;53653;52.188;8.602;2023-09-19T02:12:31;12.40;;;3.40;;
66739;SDS011;53653;52.188;8.602;2023-09-19T02:15:01;12.70;;;3.42;;
66739;SDS011;53653;52.188;8.602;2023-09-19T02:17:28;10.07;;;3.00;;
66739;SDS011;53653;52.188;8.602;2023-09-19T02:19:56;12.95;;;3.40;;
66739;SDS011;53653;52.188;8.602;2023-09-19T02:22:21;11.57;;;3.00;;
66739;SDS011;53653;52.188;8.602;2023-09-19T02:24:48;11.55;;;3.00;;
66739;SDS011;53653;52.188;8.602;2023-09-19T02:27:13;10.73;;;3.42;;
66739;SDS011;53653;52.188;8.602;2023-09-19T02:29:41;12.48;;;3.53;;
66739;SDS011;53653;52.188;8.602;2023-09-19T02:32:08;15.38;;;3.30;;
66739;SDS011;53653;52.188;8.602;2023-09-19T02:34:35;11.70;;;3.60;;
66739;SDS011;53653;52.188;8.602;2023-09-19T02:37:10;12.15;;;3.05;;
66739;SDS011;53653;52.188;8.602;2023-09-19T02:39:36;14.25;;;3.17;;
66739;SDS011;53653;52.188;8.602;2023-09-19T02:42:01;15.45;;;3.50;;
66739;SDS011;53653;52.188;8.602;2023-09-19T02:44:29;11.47;;;3.30;;
66739;SDS011;53653;52.188;8.602;2023-09-19T02:46:55;10.93;;;3.35;;
66739;SDS011;53653;52.188;8.602;2023-09-19T02:49:22;12.73;;;2.63;;
66739;SDS011;53653;52.188;8.602;2023-09-19T02:51:48;15.82;;;2.92;;
66739;SDS011;53653;52.188;8.602;2023-09-19T02:54:14;13.73;;;3.10;;
66739;SDS011;53653;52.188;8.602;2023-09-19T02:56:40;10.27;;;3.00;;
66739;SDS011;53653;52.188;8.602;2023-09-19T02:59:06;14.53;;;3.33;;
66739;SDS011;53653;52.188;8.602;2023-09-19T03:01:32;12.05;;;3.30;;
66739;SDS011;53653;52.188;8.602;2023-09-19T03:03:58;10.45;;;2.95;;
66739;SDS011;53653;52.188;8.602;2023-09-19T03:06:24;14.03;;;3.37;;
66739;SDS011;53653;52.188;8.602;2023-09-19T03:08:50;11.98;;;2.97;;
66739;SDS011;53653;52.188;8.602;2023-09-19T03:11:17;16.30;;;3.93;;
66739;SDS011;53653;52.188;8.602;2023-09-19T03:13:51;16.73;;;3.63;;
66739;SDS011;53653;52.188;8.602;2023-09-19T03:16:17;13.05;;;3.40;;
66739;SDS011;53653;52.188;8.602;2023-09-19T03:18:44;12.70;;;2.95;;
66739;SDS011;53653;52.188;8.602;2023-09-19T03:21:10;10.27;;;2.85;;
66739;SDS011;53653;52.188;8.602;2023-09-19T03:23:35;14.37;;;3.10;;
66739;SDS011;53653;52.188;8.602;2023-09-19T03:26:01;10.53;;;3.00;;
66739;SDS011;53653;52.188;8.602;2023-09-19T03:28:27;10.63;;;3.10;;
66739;SDS011;53653;52.188;8.602;2023-09-19T03:31:03;13.00;;;3.13;;
66739;SDS011;53653;52.188;8.602;2023-09-19T03:33:32;15.75;;;3.20;;
66739;SDS011;53653;52.188;8.602;2023-09-19T03:35:59;9.35;;;2.88;;
66739;SDS011;53653;52.188;8.602;2023-09-19T03:38:29;9.97;;;3.53;;
66739;SDS011;53653;52.188;8.602;2023-09-19T03:40:55;13.82;;;4.05;;
66739;SDS011;53653;52.188;8.602;2023-09-19T03:43:21;11.50;;;3.67;;
66739;SDS011;53653;52.188;8.602;2023-09-19T03:45:47;12.60;;;3.63;;
66739;SDS011;53653;52.188;8.602;2023-09-19T03:48:13;10.75;;;3.53;;
66739;SDS011;53653;52.188;8.602;2023-09-19T03:50:39;10.07;;;3.90;;
66739;SDS011;53653;52.188;8.602;2023-09-19T03:53:05;13.23;;;3.95;;
66739;SDS011;53653;52.188;8.602;2023-09-19T03:55:32;13.07;;;3.27;;
66739;SDS011;53653;52.188;8.602;2023-09-19T03:58:03;9.80;;;2.92;;
66739;SDS011;53653;52.188;8.602;2023-09-19T04:00:29;9.45;;;2.65;;
66739;SDS011;53653;52.188;8.602;2023-09-19T04:02:54;15.47;;;3.67;;
66739;SDS011;53653;52.188;8.602;2023-09-19T04:05:22;12.13;;;2.60;;
66739;SDS011;53653;52.188;8.602;2023-09-19T04:07:47;11.52;;;2.70;;
66739;SDS011;53653;52.188;8.602;2023-09-19T04:10:13;12.17;;;2.97;;
66739;SDS011;53653;52.188;8.602;2023-09-19T04:12:39;14.68;;;2.42;;
66739;SDS011;53653;52.188;8.602;2023-09-19T04:15:05;13.05;;;2.60;;
66739;SDS011;53653;52.188;8.602;2023-09-19T04:17:32;13.38;;;2.78;;
66739;SDS011;53653;52.188;8.602;2023-09-19T04:20:00;14.73;;;2.90;;
66739;SDS011;53653;52.188;8.602;2023-09-19T04:22:26;12.13;;;2.90;;
66739;SDS011;53653;52.188;8.602;2023-09-19T04:24:51;10.37;;;2.43;;
66739;SDS011;53653;52.188;8.602;2023-09-19T04:27:17;9.50;;;2.27;;
66739;SDS011;53653;52.188;8.602;2023-09-19T04:29:44;11.75;;;2.28;;
66739;SDS011;53653;52.188;8.602;2023-09-19T04:32:10;12.38;;;2.03;;
66739;SDS011;53653;52.188;8.602;2023-09-19T04:34:35;9.93;;;2.23;;
66739;SDS011;53653;52.188;8.602;2023-09-19T04:37:01;15.30;;;2.75;;
66739;SDS011;53653;52.188;8.602;2023-09-19T04:39:28;10.98;;;2.38;;
66739;SDS011;53653;52.188;8.602;2023-09-19T04:41:54;10.93;;;2.17;;
66739;SDS011;53653;52.188;8.602;2023-09-19T04:44:20;12.27;;;2.85;;
66739;SDS011;53653;52.188;8.602;2023-09-19T04:46:46;13.43;;;2.80;;
66739;SDS011;53653;52.188;8.602;2023-09-19T04:49:11;10.38;;;2.70;;
66739;SDS011;53653;52.188;8.602;2023-09-19T04:51:37;9.80;;;2.63;;
66739;SDS011;53653;52.188;8.602;2023-09-19T04:54:03;17.73;;;3.20;;
66739;SDS011;53653;52.188;8.602;2023-09-19T04:56:29;10.05;;;2.45;;
66739;SDS011;53653;52.188;8.602;2023-09-19T04:58:55;13.43;;;2.77;;
66739;SDS011;53653;52.188;8.602;2023-09-19T05:01:20;12.85;;;2.47;;
66739;SDS011;53653;52.188;8.602;2023-09-19T05:03:48;10.30;;;2.80;;
66739;SDS011;53653;52.188;8.602;2023-09-19T05:06:17;12.00;;;3.30;;
66739;SDS011;53653;52.188;8.602;2023-09-19T05:08:49;16.65;;;2.45;;
66739;SDS011;53653;52.188;8.602;2023-09-19T05:11:18;14.57;;;2.80;;
66739;SDS011;53653;52.188;8.602;2023-09-19T05:13:47;13.00;;;2.47;;
66739;SDS011;53653;52.188;8.602;2023-09-19T05:16:15;12.52;;;2.28;;
66739;SDS011;53653;52.188;8.602;2023-09-19T05:18:41;15.67;;;2.60;;
66739;SDS011;53653;52.188;8.602;2023-09-19T05:21:07;15.10;;;3.05;;
66739;SDS011;53653;52.188;8.602;2023-09-19T05:23:33;10.87;;;2.03;;
66739;SDS011;53653;52.188;8.602;2023-09-19T05:25:59;11.68;;;2.15;;
66739;SDS011;53653;52.188;8.602;2023-09-19T05:28:25;10.68;;;1.73;;
66739;SDS011;53653;52.188;8.602;2023-09-19T05:30:52;13.63;;;2.58;;
66739;SDS011;53653;52.188;8.602;2023-09-19T05:33:18;12.25;;;2.80;;
66739;SDS011;53653;52.188;8.602;2023-09-19T05:35:44;16.10;;;3.07;;
66739;SDS011;53653;52.188;8.602;2023-09-19T05:38:11;10.65;;;2.33;;
66739;SDS011;53653;52.188;8.602;2023-09-19T05:40:39;18.90;;;2.30;;
66739;SDS011;53653;52.188;8.602;2023-09-19T05:43:08;10.40;;;1.98;;
66739;SDS011;53653;52.188;8.602;2023-09-19T05:45:34;10.32;;;2.03;;
66739;SDS011;53653;52.188;8.602;2023-09-19T05:48:08;12.13;;;2.23;;
66739;SDS011;53653;52.188;8.602;2023-09-19T05:50:34;13.50;;;2.50;;
66739;SDS011;53653;52.188;8.602;2023-09-19T05:53:01;12.27;;;1.88;;
66739;SDS011;53653;52.188;8.602;2023-09-19T05:55:26;11.27;;;2.00;;
66739;SDS011;53653;52.188;8.602;2023-09-19T05:57:53;15.10;;;2.47;;
66739;SDS011;53653;52.188;8.602;2023-09-19T06:00:19;10.52;;;1.90;;
66739;SDS011;53653;52.188;8.602;2023-09-19T06:02:52;13.88;;;2.20;;
66739;SDS011;53653;52.188;8.602;2023-09-19T06:05:22;12.53;;;2.47;;
66739;SDS011;53653;52.188;8.602;2023-09-19T06:07:48;8.73;;;1.95;;
66739;SDS011;53653;52.188;8.602;2023-09-19T06:10:15;9.70;;;2.25;;
66739;SDS011;53653;52.188;8.602;2023-09-19T06:12:41;16.53;;;2.23;;
66739;SDS011;53653;52.188;8.602;2023-09-19T06:15:09;13.63;;;2.10;;
66739;SDS011;53653;52.188;8.602;2023-09-19T06:17:40;11.45;;;2.20;;
66739;SDS011;53653;52.188;8.602;2023-09-19T06:20:15;10.93;;;2.35;;
66739;SDS011;53653;52.188;8.602;2023-09-19T06:22:42;9.60;;;2.10;;
66739;SDS011;53653;52.188;8.602;2023-09-19T06:25:12;13.48;;;2.42;;
66739;SDS011;53653;52.188;8.602;2023-09-19T06:27:44;10.40;;;2.35;;
66739;SDS011;53653;52.188;8.602;2023-09-19T06:30:22;18.02;;;3.00;;
66739;SDS011;53653;52.188;8.602;2023-09-19T06:32:49;11.60;;;2.58;;
66739;SDS011;53653;52.188;8.602;2023-09-19T06:35:15;15.40;;;2.33;;
66739;SDS011;53653;52.188;8.602;2023-09-19T06:37:41;11.45;;;1.98;;
66739;SDS011;53653;52.188;8.602;2023-09-19T06:40:12;11.25;;;2.03;;
66739;SDS011;53653;52.188;8.602;2023-09-19T06:42:42;12.90;;;2.13;;
66739;SDS011;53653;52.188;8.602;2023-09-19T06:45:10;13.95;;;2.45;;
66739;SDS011;53653;52.188;8.602;2023-09-19T06:47:39;10.18;;;2.00;;
66739;SDS011;53653;52.188;8.602;2023-09-19T06:50:04;9.90;;;2.00;;
66739;SDS011;53653;52.188;8.602;2023-09-19T06:52:34;14.27;;;2.20;;
66739;SDS011;53653;52.188;8.602;2023-09-19T06:55:00;11.57;;;2.93;;
66739;SDS011;53653;52.188;8.602;2023-09-19T06:57:28;11.07;;;2.03;;
66739;SDS011;53653;52.188;8.602;2023-09-19T06:59:55;11.13;;;2.13;;
66739;SDS011;53653;52.188;8.602;2023-09-19T07:02:21;12.07;;;2.35;;
66739;SDS011;53653;52.188;8.602;2023-09-19T07:04:47;9.07;;;1.97;;
66739;SDS011;53653;52.188;8.602;2023-09-19T07:07:12;11.48;;;2.20;;
66739;SDS011;53653;52.188;8.602;2023-09-19T07:09:39;11.67;;;2.33;;
66739;SDS011;53653;52.188;8.602;2023-09-19T07:12:04;12.00;;;2.03;;
66739;SDS011;53653;52.188;8.602;2023-09-19T07:14:30;7.65;;;1.52;;
66739;SDS011;53653;52.188;8.602;2023-09-19T07:16:56;11.07;;;2.43;;
66739;SDS011;53653;52.188;8.602;2023-09-19T07:19:22;11.65;;;1.80;;
66739;SDS011;53653;52.188;8.602;2023-09-19T07:21:47;11.97;;;2.13;;
66739;SDS011;53653;52.188;8.602;2023-09-19T07:24:14;8.45;;;2.00;;
66739;SDS011;53653;52.188;8.602;2023-09-19T07:26:39;13.63;;;2.37;;
66739;SDS011;53653;52.188;8.602;2023-09-19T07:29:05;13.03;;;1.63;;
66739;SDS011;53653;52.188;8.602;2023-09-19T07:31:31;8.02;;;1.80;;
66739;SDS011;53653;52.188;8.602;2023-09-19T07:33:57;8.83;;;2.10;;
66739;SDS011;53653;52.188;8.602;2023-09-19T07:36:22;11.35;;;1.88;;
66739;SDS011;53653;52.188;8.602;2023-09-19T07:38:49;11.13;;;1.73;;
66739;SDS011;53653;52.188;8.602;2023-09-19T07:41:15;11.38;;;1.88;;
66739;SDS011;53653;52.188;8.602;2023-09-19T07:43:40;12.18;;;1.73;;
66739;SDS011;53653;52.188;8.602;2023-09-19T07:46:07;14.00;;;1.90;;
66739;SDS011;53653;52.188;8.602;2023-09-19T07:48:36;8.15;;;1.58;;
66739;SDS011;53653;52.188;8.602;2023-09-19T07:51:07;12.43;;;3.60;;
66739;SDS011;53653;52.188;8.602;2023-09-19T07:53:34;11.93;;;2.13;;
66739;SDS011;53653;52.188;8.602;2023-09-19T07:56:06;11.27;;;2.05;;
66739;SDS011;53653;52.188;8.602;2023-09-19T07:58:33;7.40;;;1.60;;
66739;SDS011;53653;52.188;8.602;2023-09-19T08:01:06;10.05;;;1.90;;
66739;SDS011;53653;52.188;8.602;2023-09-19T08:03:33;10.73;;;2.03;;
66739;SDS011;53653;52.188;8.602;2023-09-19T08:06:02;10.90;;;1.90;;
66739;SDS011;53653;52.188;8.602;2023-09-19T08:08:28;10.60;;;1.90;;
66739;SDS011;53653;52.188;8.602;2023-09-19T08:10:54;8.45;;;1.50;;
66739;SDS011;53653;52.188;8.602;2023-09-19T08:13:24;13.90;;;2.03;;
66739;SDS011;53653;52.188;8.602;2023-09-19T08:15:51;14.30;;;1.75;;
66739;SDS011;53653;52.188;8.602;2023-09-19T08:18:18;11.60;;;1.75;;
66739;SDS011;53653;52.188;8.602;2023-09-19T08:20:48;13.10;;;1.95;;
66739;SDS011;53653;52.188;8.602;2023-09-19T08:23:15;11.35;;;2.30;;
66739;SDS011;53653;52.188;8.602;2023-09-19T08:25:43;8.07;;;1.70;;
66739;SDS011;53653;52.188;8.602;2023-09-19T08:28:09;11.30;;;1.90;;
66739;SDS011;53653;52.188;8.602;2023-09-19T08:30:37;10.50;;;1.90;;
66739;SDS011;53653;52.188;8.602;2023-09-19T08:33:05;8.35;;;2.03;;
66739;SDS011;53653;52.188;8.602;2023-09-19T08:35:31;14.00;;;2.20;;
66739;SDS011;53653;52.188;8.602;2023-09-19T08:37:57;9.75;;;1.83;;
66739;SDS011;53653;52.188;8.602;2023-09-19T08:40:25;9.68;;;2.00;;
66739;SDS011;53653;52.188;8.602;2023-09-19T08:42:55;10.77;;;1.70;;
66739;SDS011;53653;52.188;8.602;2023-09-19T08:45:21;9.20;;;1.70;;
66739;SDS011;53653;52.188;8.602;2023-09-19T08:50:31;11.63;;;2.03;;
66739;SDS011;53653;52.188;8.602;2023-09-19T08:53:01;14.15;;;2.35;;
66739;SDS011;53653;52.188;8.602;2023-09-19T08:55:31;14.35;;;2.08;;
66739;SDS011;53653;52.188;8.602;2023-09-19T08:58:03;13.60;;;2.37;;
66739;SDS011;53653;52.188;8.602;2023-09-19T09:00:31;8.68;;;2.25;;
66739;SDS011;53653;52.188;8.602;2023-09-19T09:02:59;8.20;;;2.25;;
66739;SDS011;53653;52.188;8.602;2023-09-19T09:05:26;10.20;;;2.47;;
66739;SDS011;53653;52.188;8.602;2023-09-19T09:07:52;11.53;;;2.70;;
66739;SDS011;53653;52.188;8.602;2023-09-19T09:10:21;12.95;;;2.30;;
66739;SDS011;53653;52.188;8.602;2023-09-19T09:12:51;13.90;;;2.53;;
66739;SDS011;53653;52.188;8.602;2023-09-19T09:15:18;11.50;;;2.75;;
66739;SDS011;53653;52.188;8.602;2023-09-19T09:17:49;11.38;;;2.38;;
66739;SDS011;53653;52.188;8.602;2023-09-19T09:20:18;10.57;;;2.80;;
66739;SDS011;53653;52.188;8.602;2023-09-19T09:22:54;15.60;;;3.25;;
66739;SDS011;53653;52.188;8.602;2023-09-19T09:25:21;12.18;;;2.72;;
66739;SDS011;53653;52.188;8.602;2023-09-19T09:28:00;10.25;;;2.80;;
66739;SDS011;53653;52.188;8.602;2023-09-19T09:30:36;12.73;;;3.70;;
66739;SDS011;53653;52.188;8.602;2023-09-19T09:33:12;12.77;;;3.60;;
66739;SDS011;53653;52.188;8.602;2023-09-19T09:38:18;14.65;;;3.50;;
66739;SDS011;53653;52.188;8.602;2023-09-19T09:40:49;10.25;;;3.28;;
66739;SDS011;53653;52.188;8.602;2023-09-19T09:43:28;12.38;;;3.53;;
66739;SDS011;53653;52.188;8.602;2023-09-19T09:46:11;12.47;;;3.60;;
66739;SDS011;53653;52.188;8.602;2023-09-19T09:54:25;10.57;;;4.00;;
66739;SDS011;53653;52.188;8.602;2023-09-19T09:57:04;11.82;;;3.55;;
66739;SDS011;53653;52.188;8.602;2023-09-19T10:02:27;11.77;;;3.30;;
66739;SDS011;53653;52.188;8.602;2023-09-19T10:08:09;11.55;;;4.10;;
66739;SDS011;53653;52.188;8.602;2023-09-19T10:10:38;11.48;;;3.78;;
66739;SDS011;53653;52.188;8.602;2023-09-19T10:13:08;14.73;;;3.70;;
66739;SDS011;53653;52.188;8.602;2023-09-19T10:15:40;13.70;;;3.28;;
66739;SDS011;53653;52.188;8.602;2023-09-19T10:18:11;11.73;;;3.05;;
66739;SDS011;53653;52.188;8.602;2023-09-19T10:20:44;10.05;;;3.10;;
66739;SDS011;53653;52.188;8.602;2023-09-19T10:23:11;10.38;;;3.10;;
66739;SDS011;53653;52.188;8.602;2023-09-19T10:25:43;14.40;;;3.63;;
66739;SDS011;53653;52.188;8.602;2023-09-19T10:28:13;16.48;;;3.55;;
66739;SDS011;53653;52.188;8.602;2023-09-19T10:30:46;11.48;;;3.65;;
66739;SDS011;53653;52.188;8.602;2023-09-19T10:33:18;11.13;;;3.17;;
66739;SDS011;53653;52.188;8.602;2023-09-19T10:35:48;11.73;;;2.88;;
66739;SDS011;53653;52.188;8.602;2023-09-19T10:38:18;11.67;;;3.30;;
66739;SDS011;53653;52.188;8.602;2023-09-19T10:40:48;12.25;;;3.10;;
66739;SDS011;53653;52.188;8.602;2023-09-19T10:43:18;11.07;;;2.60;;
66739;SDS011;53653;52.188;8.602;2023-09-19T10:45:46;10.50;;;3.13;;
66739;SDS011;53653;52.188;8.602;2023-09-19T10:48:18;13.40;;;3.25;;
66739;SDS011;53653;52.188;8.602;2023-09-19T10:56:10;9.75;;;3.22;;
66739;SDS011;53653;52.188;8.602;2023-09-19T10:58:45;15.32;;;3.00;;
66739;SDS011;53653;52.188;8.602;2023-09-19T11:01:11;11.63;;;2.87;;
66739;SDS011;53653;52.188;8.602;2023-09-19T11:03:40;9.48;;;3.17;;
66739;SDS011;53653;52.188;8.602;2023-09-19T11:06:16;14.50;;;3.10;;
66739;SDS011;53653;52.188;8.602;2023-09-19T11:09:00;9.13;;;2.88;;
66739;SDS011;53653;52.188;8.602;2023-09-19T11:11:56;12.13;;;2.80;;
66739;SDS011;53653;52.188;8.602;2023-09-19T11:17:37;9.13;;;2.42;;
66739;SDS011;53653;52.188;8.602;2023-09-19T11:30:43;11.75;;;3.00;;
66739;SDS011;53653;52.188;8.602;2023-09-19T11:46:28;13.98;;;2.30;;
66739;SDS011;53653;52.188;8.602;2023-09-19T11:49:04;11.73;;;2.80;;
66739;SDS011;53653;52.188;8.602;2023-09-19T11:51:39;14.23;;;2.43;;
66739;SDS011;53653;52.188;8.602;2023-09-19T11:54:10;10.40;;;1.98;;
66739;SDS011;53653;52.188;8.602;2023-09-19T11:56:50;12.85;;;2.40;;
66739;SDS011;53653;52.188;8.602;2023-09-19T11:59:22;11.70;;;2.10;;
66739;SDS011;53653;52.188;8.602;2023-09-19T12:02:04;11.52;;;2.10;;
66739;SDS011;53653;52.188;8.602;2023-09-19T12:04:34;10.30;;;2.33;;
66739;SDS011;53653;52.188;8.602;2023-09-19T12:07:13;12.05;;;2.40;;
66739;SDS011;53653;52.188;8.602;2023-09-19T12:12:28;11.02;;;2.50;;
66739;SDS011;53653;52.188;8.602;2023-09-19T12:14:55;8.93;;;2.28;;
66739;SDS011;53653;52.188;8.602;2023-09-19T12:20:09;10.38;;;2.28;;
66739;SDS011;53653;52.188;8.602;2023-09-19T12:22:42;10.52;;;2.63;;
66739;SDS011;53653;52.188;8.602;2023-09-19T12:25:09;11.43;;;2.40;;
66739;SDS011;53653;52.188;8.602;2023-09-19T12:27:47;7.93;;;1.90;;
66739;SDS011;53653;52.188;8.602;2023-09-19T12:30:13;12.27;;;2.40;;
66739;SDS011;53653;52.188;8.602;2023-09-19T12:32:40;10.48;;;2.38;;
66739;SDS011;53653;52.188;8.602;2023-09-19T12:35:07;12.48;;;2.45;;
66739;SDS011;53653;52.188;8.602;2023-09-19T12:37:36;8.57;;;1.98;;
66739;SDS011;53653;52.188;8.602;2023-09-19T12:40:13;8.98;;;1.77;;
66739;SDS011;53653;52.188;8.602;2023-09-19T12:42:43;8.80;;;2.10;;
66739;SDS011;53653;52.188;8.602;2023-09-19T12:45:10;10.07;;;2.28;;
66739;SDS011;53653;52.188;8.602;2023-09-19T12:47:39;9.88;;;2.22;;
66739;SDS011;53653;52.188;8.602;2023-09-19T12:50:11;9.90;;;2.50;;
66739;SDS011;53653;52.188;8.602;2023-09-19T12:52:39;10.63;;;2.22;;
66739;SDS011;53653;52.188;8.602;2023-09-19T12:55:05;12.83;;;2.17;;
66739;SDS011;53653;52.188;8.602;2023-09-19T12:57:35;10.40;;;2.30;;
66739;SDS011;53653;52.188;8.602;2023-09-19T13:00:03;13.15;;;2.40;;
66739;SDS011;53653;52.188;8.602;2023-09-19T13:02:36;14.07;;;2.60;;
66739;SDS011;53653;52.188;8.602;2023-09-19T13:05:03;7.22;;;1.98;;
66739;SDS011;53653;52.188;8.602;2023-09-19T13:07:44;10.90;;;1.90;;
66739;SDS011;53653;52.188;8.602;2023-09-19T13:10:14;9.32;;;2.20;;
66739;SDS011;53653;52.188;8.602;2023-09-19T13:12:41;9.52;;;2.15;;
66739;SDS011;53653;52.188;8.602;2023-09-19T13:15:12;12.60;;;2.60;;
66739;SDS011;53653;52.188;8.602;2023-09-19T13:17:45;9.57;;;2.15;;
66739;SDS011;53653;52.188;8.602;2023-09-19T13:20:24;8.53;;;2.17;;
66739;SDS011;53653;52.188;8.602;2023-09-19T13:22:52;9.65;;;2.70;;
66739;SDS011;53653;52.188;8.602;2023-09-19T13:25:19;10.15;;;2.17;;
66739;SDS011;53653;52.188;8.602;2023-09-19T13:30:13;9.18;;;1.90;;
66739;SDS011;53653;52.188;8.602;2023-09-19T13:32:39;10.00;;;2.10;;
66739;SDS011;53653;52.188;8.602;2023-09-19T13:35:06;8.15;;;1.98;;
66739;SDS011;53653;52.188;8.602;2023-09-19T13:37:35;10.18;;;2.17;;
66739;SDS011;53653;52.188;8.602;2023-09-19T13:40:09;8.88;;;1.80;;
66739;SDS011;53653;52.188;8.602;2023-09-19T13:42:36;11.98;;;2.28;;
66739;SDS011;53653;52.188;8.602;2023-09-19T13:45:05;7.43;;;1.67;;
66739;SDS011;53653;52.188;8.602;2023-09-19T13:47:31;6.90;;;1.40;;
66739;SDS011;53653;52.188;8.602;2023-09-19T13:49:58;8.93;;;1.88;;
66739;SDS011;53653;52.188;8.602;2023-09-19T13:52:27;9.60;;;2.10;;
66739;SDS011;53653;52.188;8.602;2023-09-19T13:54:55;10.50;;;1.43;;
66739;SDS011;53653;52.188;8.602;2023-09-19T13:57:24;6.78;;;1.60;;
66739;SDS011;53653;52.188;8.602;2023-09-19T13:59:54;10.10;;;2.30;;
66739;SDS011;53653;52.188;8.602;2023-09-19T14:02:20;8.00;;;1.63;;
66739;SDS011;53653;52.188;8.602;2023-09-19T14:04:49;11.23;;;2.53;;
66739;SDS011;53653;52.188;8.602;2023-09-19T14:07:15;10.77;;;1.75;;
66739;SDS011;53653;52.188;8.602;2023-09-19T14:09:43;9.80;;;1.67;;
66739;SDS011;53653;52.188;8.602;2023-09-19T14:12:09;7.72;;;1.80;;
66739;SDS011;53653;52.188;8.602;2023-09-19T14:14:35;13.48;;;2.30;;
66739;SDS011;53653;52.188;8.602;2023-09-19T14:17:02;8.37;;;1.50;;
66739;SDS011;53653;52.188;8.602;2023-09-19T14:19:28;6.53;;;1.55;;
66739;SDS011;53653;52.188;8.602;2023-09-19T14:21:54;8.03;;;1.90;;
66739;SDS011;53653;52.188;8.602;2023-09-19T14:24:22;7.15;;;1.90;;
66739;SDS011;53653;52.188;8.602;2023-09-19T14:26:48;6.72;;;1.58;;
66739;SDS011;53653;52.188;8.602;2023-09-19T14:29:14;8.10;;;1.65;;
66739;SDS011;53653;52.188;8.602;2023-09-19T14:31:40;14.93;;;1.83;;
66739;SDS011;53653;52.188;8.602;2023-09-19T14:34:06;8.10;;;1.77;;
66739;SDS011;53653;52.188;8.602;2023-09-19T14:36:35;6.35;;;1.60;;
66739;SDS011;53653;52.188;8.602;2023-09-19T14:39:01;16.33;;;2.60;;
66739;SDS011;53653;52.188;8.602;2023-09-19T14:41:26;8.83;;;1.73;;
66739;SDS011;53653;52.188;8.602;2023-09-19T14:43:52;8.40;;;1.47;;
66739;SDS011;53653;52.188;8.602;2023-09-19T14:46:18;7.72;;;1.88;;
66739;SDS011;53653;52.188;8.602;2023-09-19T14:48:44;8.27;;;1.50;;
66739;SDS011;53653;52.188;8.602;2023-09-19T14:51:12;8.13;;;1.33;;
66739;SDS011;53653;52.188;8.602;2023-09-19T14:53:39;7.35;;;2.05;;
66739;SDS011;53653;52.188;8.602;2023-09-19T14:56:09;7.45;;;1.60;;
66739;SDS011;53653;52.188;8.602;2023-09-19T14:58:36;8.63;;;1.92;;
66739;SDS011;53653;52.188;8.602;2023-09-19T15:01:10;6.90;;;1.45;;
66739;SDS011;53653;52.188;8.602;2023-09-19T15:03:37;7.07;;;1.70;;
66739;SDS011;53653;52.188;8.602;2023-09-19T15:06:05;6.38;;;1.48;;
66739;SDS011;53653;52.188;8.602;2023-09-19T15:08:34;7.47;;;1.48;;
66739;SDS011;53653;52.188;8.602;2023-09-19T15:11:07;8.93;;;1.77;;
66739;SDS011;53653;52.188;8.602;2023-09-19T15:13:33;6.78;;;1.55;;
66739;SDS011;53653;52.188;8.602;2023-09-19T15:16:02;7.80;;;1.37;;
66739;SDS011;53653;52.188;8.602;2023-09-19T15:18:30;7.93;;;1.30;;
66739;SDS011;53653;52.188;8.602;2023-09-19T15:21:05;8.40;;;1.63;;
66739;SDS011;53653;52.188;8.602;2023-09-19T15:23:34;7.10;;;1.27;;
66739;SDS011;53653;52.188;8.602;2023-09-19T15:26:02;8.17;;;1.20;;
66739;SDS011;53653;52.188;8.602;2023-09-19T15:28:32;7.18;;;1.40;;
66739;SDS011;53653;52.188;8.602;2023-09-19T15:30:59;7.70;;;1.15;;
66739;SDS011;53653;52.188;8.602;2023-09-19T15:33:26;5.53;;;1.15;;
66739;SDS011;53653;52.188;8.602;2023-09-19T15:36:15;9.02;;;1.42;;
66739;SDS011;53653;52.188;8.602;2023-09-19T15:41:25;7.30;;;1.23;;
66739;SDS011;53653;52.188;8.602;2023-09-19T15:44:02;6.63;;;1.50;;
66739;SDS011;53653;52.188;8.602;2023-09-19T15:46:29;6.28;;;1.30;;
66739;SDS011;53653;52.188;8.602;2023-09-19T15:48:56;8.85;;;1.45;;
66739;SDS011;53653;52.188;8.602;2023-09-19T15:51:22;9.23;;;1.53;;
66739;SDS011;53653;52.188;8.602;2023-09-19T15:53:49;6.80;;;1.40;;
66739;SDS011;53653;52.188;8.602;2023-09-19T15:56:16;6.40;;;1.25;;
66739;SDS011;53653;52.188;8.602;2023-09-19T15:58:46;8.27;;;1.30;;
66739;SDS011;53653;52.188;8.602;2023-09-19T16:01:19;6.25;;;1.30;;